createdAt,value
2018-09-30T00:00:32.055Z,3.30
2018-09-30T00:03:00.767Z,3.17
2018-09-30T00:05:35.636Z,3.77
2018-09-30T00:08:04.038Z,3.93
2018-09-30T00:10:32.563Z,4.33
2018-09-30T00:13:01.098Z,4.70
2018-09-30T00:15:29.577Z,4.67
2018-09-30T00:18:00.852Z,5.20
2018-09-30T00:20:29.274Z,5.80
2018-09-30T00:22:58.925Z,5.47
2018-09-30T00:25:32.765Z,6.33
2018-09-30T00:28:01.449Z,5.83
2018-09-30T00:30:30.822Z,5.10
2018-09-30T00:32:59.223Z,5.43
2018-09-30T00:35:27.737Z,5.45
2018-09-30T00:37:56.148Z,6.63
2018-09-30T00:40:24.557Z,4.75
2018-09-30T00:42:52.971Z,5.43
2018-09-30T00:45:21.963Z,5.10
2018-09-30T00:47:50.379Z,5.92
2018-09-30T00:50:18.788Z,5.63
2018-09-30T00:52:47.230Z,4.87
2018-09-30T00:55:15.664Z,4.75
2018-09-30T00:57:44.146Z,5.03
2018-09-30T01:00:13.471Z,4.70
2018-09-30T01:02:41.873Z,4.73
2018-09-30T01:05:10.299Z,5.08
2018-09-30T01:07:38.661Z,4.90
2018-09-30T01:10:07.207Z,4.47
2018-09-30T01:12:35.596Z,4.45
2018-09-30T01:15:04.140Z,4.10
2018-09-30T01:17:32.595Z,4.40
2018-09-30T01:20:01.077Z,4.80
2018-09-30T01:22:29.530Z,5.77
2018-09-30T01:24:57.935Z,5.07
2018-09-30T01:27:26.303Z,5.10
2018-09-30T01:29:54.782Z,5.55
2018-09-30T01:32:23.170Z,5.53
2018-09-30T01:34:52.452Z,5.53
2018-09-30T01:37:20.906Z,4.50
2018-09-30T01:39:49.312Z,4.60
2018-09-30T01:42:18.289Z,4.23
2018-09-30T01:44:46.681Z,4.37
2018-09-30T01:47:15.960Z,5.47
2018-09-30T01:49:44.412Z,3.20
2018-09-30T01:52:24.733Z,4.15
2018-09-30T01:54:53.251Z,4.33
2018-09-30T01:57:21.635Z,3.63
2018-09-30T01:59:50.048Z,4.30
2018-09-30T02:02:18.497Z,4.10
2018-09-30T02:04:46.873Z,5.00
2018-09-30T02:07:15.277Z,4.17
2018-09-30T02:09:43.709Z,6.15
2018-09-30T02:12:12.140Z,6.70
2018-09-30T02:14:40.564Z,6.87
2018-09-30T02:17:09.048Z,7.40
2018-09-30T02:19:38.462Z,7.80
2018-09-30T02:22:07.580Z,8.05
2018-09-30T02:24:37.072Z,7.60
2018-09-30T02:27:05.550Z,9.10
2018-09-30T02:29:33.900Z,7.60
2018-09-30T02:32:02.284Z,7.90
2018-09-30T02:34:30.665Z,7.70
2018-09-30T02:36:59.043Z,7.10
2018-09-30T02:44:28.548Z,5.90
2018-09-30T02:46:56.922Z,5.72
2018-09-30T02:49:25.546Z,5.03
2018-09-30T02:51:55.008Z,4.30
2018-09-30T02:54:23.413Z,4.93
2018-09-30T02:56:51.901Z,5.20
2018-09-30T02:59:20.528Z,4.60
2018-09-30T03:01:49.136Z,4.30
2018-09-30T03:04:17.656Z,4.25
2018-09-30T03:06:52.088Z,4.85
2018-09-30T03:09:20.636Z,4.10
2018-09-30T03:11:49.014Z,4.77
2018-09-30T03:14:17.670Z,4.87
2018-09-30T03:16:46.736Z,4.30
2018-09-30T03:19:15.568Z,4.03
2018-09-30T03:21:44.048Z,4.17
2018-09-30T03:24:12.876Z,3.72
2018-09-30T03:26:41.801Z,4.97
2018-09-30T03:29:10.240Z,5.93
2018-09-30T03:31:39.457Z,5.40
2018-09-30T03:34:08.144Z,5.20
2018-09-30T03:36:36.524Z,4.62
2018-09-30T03:39:07.562Z,4.33
2018-09-30T03:41:35.988Z,4.87
2018-09-30T03:44:04.382Z,4.60
2018-09-30T03:46:32.815Z,4.30
2018-09-30T03:49:01.236Z,3.50
2018-09-30T03:51:30.695Z,3.87
2018-09-30T03:53:59.155Z,3.80
2018-09-30T03:56:28.557Z,4.10
2018-09-30T03:58:56.954Z,3.70
2018-09-30T04:01:25.399Z,3.57
2018-09-30T04:03:53.773Z,3.95
2018-09-30T04:06:22.178Z,4.17
2018-09-30T04:08:50.561Z,3.58
2018-09-30T04:11:19.839Z,3.80
2018-09-30T04:13:48.293Z,3.50
2018-09-30T04:16:16.699Z,4.20
2018-09-30T04:18:45.645Z,3.50
2018-09-30T04:21:14.070Z,4.20
2018-09-30T04:23:42.558Z,5.47
2018-09-30T04:26:10.941Z,5.10
2018-09-30T04:28:39.437Z,5.70
2018-09-30T04:31:07.810Z,5.83
2018-09-30T04:33:36.229Z,6.00
2018-09-30T04:36:04.667Z,5.80
2018-09-30T04:38:33.092Z,5.60
2018-09-30T04:41:01.928Z,5.90
2018-09-30T04:43:30.297Z,5.77
2018-09-30T04:45:59.224Z,4.93
2018-09-30T04:48:27.844Z,5.63
2018-09-30T04:50:56.225Z,5.90
2018-09-30T04:53:24.827Z,5.22
2018-09-30T04:55:53.898Z,6.20
2018-09-30T04:58:22.263Z,6.10
2018-09-30T05:00:50.617Z,6.70
2018-09-30T05:03:18.991Z,5.30
2018-09-30T05:05:47.518Z,5.73
2018-09-30T05:08:15.891Z,5.03
2018-09-30T05:10:44.248Z,4.93
2018-09-30T05:13:12.664Z,5.25
2018-09-30T05:15:41.351Z,4.50
2018-09-30T05:18:09.782Z,4.37
2018-09-30T05:20:38.163Z,5.40
2018-09-30T05:23:06.737Z,4.45
2018-09-30T05:25:41.007Z,5.40
2018-09-30T05:28:09.735Z,5.23
2018-09-30T05:30:38.331Z,4.87
2018-09-30T05:33:06.756Z,4.60
2018-09-30T05:35:35.718Z,4.17
2018-09-30T05:38:04.169Z,4.70
2018-09-30T05:40:32.848Z,4.87
2018-09-30T05:43:02.007Z,4.75
2018-09-30T05:45:30.380Z,4.78
2018-09-30T05:47:59.013Z,4.63
2018-09-30T05:50:27.563Z,4.80
2018-09-30T05:52:56.571Z,4.73
2018-09-30T05:55:25.040Z,5.20
2018-09-30T05:57:53.557Z,5.42
2018-09-30T06:00:22.948Z,5.15
2018-09-30T06:02:53.343Z,4.93
2018-09-30T06:05:22.054Z,5.60
2018-09-30T06:07:50.685Z,4.15
2018-09-30T06:10:19.646Z,4.95
2018-09-30T06:12:48.139Z,4.73
2018-09-30T06:15:16.585Z,4.60
2018-09-30T06:17:45.078Z,5.43
2018-09-30T06:20:13.644Z,5.23
2018-09-30T06:22:42.069Z,5.03
2018-09-30T06:25:10.523Z,6.00
2018-09-30T06:27:39.011Z,4.97
2018-09-30T06:30:08.596Z,5.70
2018-09-30T06:32:43.611Z,5.80
2018-09-30T06:35:12.162Z,5.83
2018-09-30T06:37:40.684Z,5.47
2018-09-30T06:40:09.395Z,5.60
2018-09-30T06:42:38.381Z,6.60
2018-09-30T06:45:07.007Z,7.03
2018-09-30T06:47:35.621Z,6.50
2018-09-30T06:50:04.252Z,6.10
2018-09-30T06:52:32.721Z,5.28
2018-09-30T06:55:02.615Z,5.60
2018-09-30T06:57:31.046Z,4.67
2018-09-30T06:59:59.718Z,5.53
2018-09-30T07:02:29.114Z,5.10
2018-09-30T07:04:57.735Z,5.13
2018-09-30T07:07:26.179Z,5.43
2018-09-30T07:09:54.704Z,5.10
2018-09-30T07:12:23.330Z,5.50
2018-09-30T07:14:51.866Z,6.43
2018-09-30T07:17:23.443Z,6.30
2018-09-30T07:19:52.349Z,6.40
2018-09-30T07:22:23.222Z,6.50
2018-09-30T07:24:58.868Z,7.00
2018-09-30T07:27:27.993Z,6.53
2018-09-30T07:29:58.343Z,6.97
2018-09-30T07:32:27.678Z,6.67
2018-09-30T07:34:56.226Z,6.23
2018-09-30T07:37:25.121Z,5.93
2018-09-30T07:39:53.719Z,6.53
2018-09-30T07:42:22.435Z,6.17
2018-09-30T07:44:51.043Z,6.10
2018-09-30T07:47:19.495Z,6.55
2018-09-30T07:49:48.550Z,5.83
2018-09-30T07:52:17.409Z,7.00
2018-09-30T07:54:45.961Z,6.60
2018-09-30T07:57:14.562Z,6.97
2018-09-30T07:59:43.009Z,6.23
2018-09-30T08:02:11.479Z,6.12
2018-09-30T08:04:40.144Z,6.40
2018-09-30T08:07:08.833Z,5.65
2018-09-30T08:09:37.937Z,6.13
2018-09-30T08:12:07.130Z,5.67
2018-09-30T08:14:41.473Z,4.40
2018-09-30T08:17:10.146Z,4.27
2018-09-30T08:19:38.860Z,5.03
2018-09-30T08:22:08.285Z,4.92
2018-09-30T08:24:36.920Z,4.63
2018-09-30T08:27:06.059Z,4.03
2018-09-30T08:29:34.504Z,4.30
2018-09-30T08:32:02.998Z,3.70
2018-09-30T08:34:31.448Z,3.80
2018-09-30T08:36:59.866Z,4.03
2018-09-30T08:39:28.339Z,3.63
2018-09-30T08:41:56.837Z,4.17
2018-09-30T08:44:25.206Z,3.70
2018-09-30T08:46:53.730Z,3.67
2018-09-30T08:49:22.268Z,4.20
2018-09-30T08:51:50.725Z,4.08
2018-09-30T08:54:19.188Z,4.37
2018-09-30T08:56:48.570Z,3.42
2018-09-30T08:59:16.944Z,3.87
2018-09-30T09:01:45.373Z,3.90
2018-09-30T09:04:13.937Z,4.07
2018-09-30T09:06:42.318Z,4.00
2018-09-30T09:09:12.624Z,4.10
2018-09-30T09:11:41.317Z,4.03
2018-09-30T09:14:09.784Z,4.00
2018-09-30T09:16:38.511Z,3.67
2018-09-30T09:19:06.981Z,4.77
2018-09-30T09:21:35.430Z,4.10
2018-09-30T09:24:04.804Z,4.00
2018-09-30T09:26:33.297Z,4.20
2018-09-30T09:29:01.737Z,3.80
2018-09-30T09:34:04.869Z,3.60
2018-09-30T09:36:34.876Z,4.23
2018-09-30T09:39:06.389Z,3.90
2018-09-30T09:41:34.907Z,3.23
2018-09-30T09:44:03.356Z,3.40
2018-09-30T09:46:31.864Z,3.80
2018-09-30T09:49:00.371Z,4.00
2018-09-30T09:51:28.865Z,3.73
2018-09-30T09:54:04.398Z,3.33
2018-09-30T09:56:34.509Z,3.90
2018-09-30T09:59:04.649Z,3.40
2018-09-30T10:01:33.163Z,3.30
2018-09-30T10:04:04.673Z,3.93
2018-09-30T10:06:35.518Z,3.70
2018-09-30T10:09:12.519Z,3.62
2018-09-30T10:11:41.643Z,4.13
2018-09-30T10:14:11.777Z,3.47
2018-09-30T10:16:43.354Z,3.53
2018-09-30T10:19:12.503Z,3.33
2018-09-30T10:21:42.732Z,3.65
2018-09-30T10:24:11.610Z,3.90
2018-09-30T10:26:42.847Z,4.20
2018-09-30T10:29:11.615Z,2.83
2018-09-30T10:31:40.289Z,3.93
2018-09-30T10:34:08.780Z,3.92
2018-09-30T10:36:37.254Z,4.10
2018-09-30T10:39:08.531Z,4.00
2018-09-30T10:41:36.872Z,4.87
2018-09-30T10:44:05.442Z,4.40
2018-09-30T10:46:37.048Z,4.00
2018-09-30T10:49:09.736Z,4.00
2018-09-30T10:51:38.361Z,3.83
2018-09-30T10:54:07.110Z,3.70
2018-09-30T10:56:37.870Z,4.20
2018-09-30T10:59:07.446Z,3.73
2018-09-30T11:01:38.549Z,3.50
2018-09-30T11:04:09.006Z,3.77
2018-09-30T11:06:37.649Z,3.60
2018-09-30T11:09:07.031Z,3.90
2018-09-30T11:11:35.487Z,4.40
2018-09-30T11:14:04.211Z,3.90
2018-09-30T11:16:32.673Z,3.87
2018-09-30T11:19:01.554Z,3.43
2018-09-30T11:21:29.992Z,3.20
2018-09-30T11:23:58.398Z,3.67
2018-09-30T11:26:26.876Z,3.02
2018-09-30T11:28:55.398Z,3.47
2018-09-30T11:31:23.878Z,3.20
2018-09-30T11:33:53.013Z,3.60
2018-09-30T11:41:21.413Z,3.70
2018-09-30T11:43:49.948Z,3.50
2018-09-30T11:46:18.500Z,3.90
2018-09-30T11:48:46.930Z,3.90
2018-09-30T11:51:15.377Z,3.80
2018-09-30T11:53:43.865Z,3.80
2018-09-30T11:56:12.403Z,3.40
2018-09-30T11:58:40.865Z,3.10
2018-09-30T12:01:09.310Z,3.63
2018-09-30T12:03:37.719Z,3.60
2018-09-30T12:06:06.172Z,3.63
2018-09-30T12:08:34.662Z,3.60
2018-09-30T12:11:03.160Z,3.70
2018-09-30T12:13:31.617Z,3.70
2018-09-30T12:16:00.089Z,3.20
2018-09-30T12:18:28.576Z,3.70
2018-09-30T12:20:57.008Z,3.90
2018-09-30T12:23:25.460Z,2.95
2018-09-30T12:25:53.964Z,3.77
2018-09-30T12:28:22.460Z,4.27
2018-09-30T12:30:50.969Z,3.53
2018-09-30T12:33:19.414Z,3.83
2018-09-30T12:35:47.878Z,3.83
2018-09-30T12:38:16.293Z,3.90
2018-09-30T12:40:44.726Z,4.07
2018-09-30T12:43:13.097Z,3.97
2018-09-30T12:45:41.481Z,3.30
2018-09-30T12:48:10.248Z,3.33
2018-09-30T12:50:39.081Z,3.70
2018-09-30T12:53:07.810Z,3.97
2018-09-30T12:55:36.292Z,3.27
2018-09-30T12:58:04.838Z,3.40
2018-09-30T13:00:33.571Z,4.10
2018-09-30T13:03:02.308Z,3.60
2018-09-30T13:05:30.776Z,3.60
2018-09-30T13:07:59.319Z,4.00
2018-09-30T13:10:27.803Z,4.00
2018-09-30T13:12:57.388Z,4.90
2018-09-30T13:15:25.973Z,3.90
2018-09-30T13:17:54.325Z,3.70
2018-09-30T13:20:23.009Z,4.30
2018-09-30T13:22:51.457Z,4.23
2018-09-30T13:25:19.906Z,3.90
2018-09-30T13:27:48.527Z,4.83
2018-09-30T13:30:17.309Z,3.90
2018-09-30T13:32:45.676Z,4.00
2018-09-30T13:35:14.208Z,4.08
2018-09-30T13:37:42.621Z,3.70
2018-09-30T13:40:11.247Z,4.17
2018-09-30T13:42:39.794Z,4.17
2018-09-30T13:45:08.855Z,4.50
2018-09-30T13:47:37.601Z,4.77
2018-09-30T13:50:06.146Z,4.40
2018-09-30T13:52:34.601Z,4.58
2018-09-30T13:55:03.066Z,4.30
2018-09-30T13:57:31.444Z,3.90
2018-09-30T13:59:59.921Z,4.00
2018-09-30T14:02:28.410Z,4.13
2018-09-30T14:04:56.801Z,3.60
2018-09-30T14:07:25.229Z,4.97
2018-09-30T14:09:53.582Z,4.53
2018-09-30T14:12:22.049Z,3.80
2018-09-30T14:14:50.479Z,3.90
2018-09-30T14:17:18.859Z,3.50
2018-09-30T14:19:47.246Z,4.55
2018-09-30T14:22:16.542Z,3.93
2018-09-30T14:24:44.920Z,4.50
2018-09-30T14:27:13.532Z,5.17
2018-09-30T14:29:41.782Z,4.70
2018-09-30T14:32:10.185Z,4.33
2018-09-30T14:34:38.747Z,4.27
2018-09-30T14:37:07.494Z,4.13
2018-09-30T14:39:36.471Z,5.50
2018-09-30T14:42:04.969Z,4.63
2018-09-30T14:44:33.364Z,4.63
2018-09-30T14:47:01.729Z,4.43
2018-09-30T14:49:30.164Z,4.00
2018-09-30T14:51:58.589Z,4.23
2018-09-30T14:54:27.065Z,4.43
2018-09-30T14:56:55.616Z,4.50
2018-09-30T14:59:24.002Z,4.40
2018-09-30T15:01:52.461Z,5.17
2018-09-30T15:04:20.888Z,4.50
2018-09-30T15:06:49.289Z,4.17
2018-09-30T15:09:17.703Z,3.90
2018-09-30T15:11:46.101Z,4.27
2018-09-30T15:14:14.525Z,4.27
2018-09-30T15:16:43.211Z,3.90
2018-09-30T15:19:13.781Z,4.37
2018-09-30T15:21:43.050Z,4.80
2018-09-30T15:24:11.927Z,3.83
2018-09-30T15:26:40.292Z,4.53
2018-09-30T15:29:09.666Z,4.70
2018-09-30T15:31:38.733Z,4.60
2018-09-30T15:34:07.550Z,4.87
2018-09-30T15:36:36.872Z,4.53
2018-09-30T15:39:08.363Z,5.07
2018-09-30T15:41:37.381Z,4.23
2018-09-30T15:44:05.797Z,4.77
2018-09-30T15:46:34.194Z,4.23
2018-09-30T15:49:02.634Z,5.00
2018-09-30T15:51:31.619Z,4.35
2018-09-30T15:54:00.053Z,4.30
2018-09-30T15:56:29.237Z,4.72
2018-09-30T15:58:58.460Z,5.80
2018-09-30T16:01:27.120Z,5.60
2018-09-30T16:03:55.656Z,5.50
2018-09-30T16:06:25.112Z,7.77
2018-09-30T16:08:53.544Z,6.00
2018-09-30T16:11:21.967Z,4.67
2018-09-30T16:13:50.382Z,4.27
2018-09-30T16:16:18.789Z,4.90
2018-09-30T16:18:47.253Z,4.90
2018-09-30T16:21:15.898Z,4.73
2018-09-30T16:23:44.264Z,4.60
2018-09-30T16:26:13.300Z,4.50
2018-09-30T16:28:41.932Z,4.83
2018-09-30T16:31:10.859Z,5.45
2018-09-30T16:33:39.490Z,4.53
2018-09-30T16:36:07.973Z,5.00
2018-09-30T16:38:36.455Z,4.30
2018-09-30T16:41:05.194Z,3.73
2018-09-30T16:43:33.823Z,4.10
2018-09-30T16:46:02.372Z,4.53
2018-09-30T16:48:31.279Z,5.33
2018-09-30T16:50:59.685Z,4.90
2018-09-30T16:53:28.747Z,4.28
2018-09-30T16:55:57.407Z,4.73
2018-09-30T16:58:25.917Z,4.40
2018-09-30T17:00:55.486Z,3.33
2018-09-30T17:03:23.880Z,3.87
2018-09-30T17:05:52.949Z,3.33
2018-09-30T17:08:21.548Z,3.53
2018-09-30T17:10:50.002Z,3.60
2018-09-30T17:13:18.523Z,4.40
2018-09-30T17:15:47.052Z,3.37
2018-09-30T17:18:15.586Z,3.53
2018-09-30T17:20:44.025Z,3.30
2018-09-30T17:23:12.694Z,3.57
2018-09-30T17:25:41.213Z,3.77
2018-09-30T17:28:09.620Z,3.73
2018-09-30T17:30:38.198Z,4.60
2018-09-30T17:33:06.600Z,3.87
2018-09-30T17:35:35.236Z,4.73
2018-09-30T17:38:04.582Z,4.13
2018-09-30T17:40:33.030Z,4.70
2018-09-30T17:43:01.408Z,4.85
2018-09-30T17:45:29.857Z,5.22
2018-09-30T17:47:58.247Z,5.87
2018-09-30T17:50:27.340Z,5.47
2018-09-30T17:52:55.801Z,5.67
2018-09-30T17:55:24.212Z,5.50
2018-09-30T17:57:52.717Z,5.12
2018-09-30T18:00:28.612Z,5.42
2018-09-30T18:02:57.287Z,5.37
2018-09-30T18:05:25.746Z,4.20
2018-09-30T18:07:54.164Z,4.07
2018-09-30T18:10:22.684Z,4.40
2018-09-30T18:12:51.087Z,4.95
2018-09-30T18:15:19.494Z,4.65
2018-09-30T18:17:47.872Z,4.37
2018-09-30T18:20:16.537Z,4.73
2018-09-30T18:22:45.156Z,4.97
2018-09-30T18:25:13.909Z,4.20
2018-09-30T18:27:45.743Z,5.57
2018-09-30T18:30:14.730Z,5.27
2018-09-30T18:32:43.191Z,4.73
2018-09-30T18:35:12.543Z,5.22
2018-09-30T18:37:41.267Z,5.50
2018-09-30T18:40:10.068Z,6.27
2018-09-30T18:42:38.619Z,5.62
2018-09-30T18:45:07.400Z,5.10
2018-09-30T18:47:36.113Z,5.70
2018-09-30T18:50:05.233Z,5.50
2018-09-30T18:52:34.108Z,6.33
2018-09-30T18:55:02.958Z,6.23
2018-09-30T18:57:31.823Z,6.00
2018-09-30T19:00:09.083Z,7.20
2018-09-30T19:02:39.963Z,6.73
2018-09-30T19:05:09.177Z,8.20
2018-09-30T19:07:38.286Z,6.50
2018-09-30T19:10:07.291Z,6.30
2018-09-30T19:12:36.118Z,6.40
2018-09-30T19:15:04.947Z,6.33
2018-09-30T19:17:33.637Z,5.70
2018-09-30T19:20:02.433Z,5.70
2018-09-30T19:22:31.212Z,6.00
2018-09-30T19:25:00.075Z,5.92
2018-09-30T19:27:28.468Z,5.30
2018-09-30T19:29:56.980Z,5.00
2018-09-30T19:32:25.372Z,4.83
2018-09-30T19:34:54.270Z,3.65
2018-09-30T19:37:22.669Z,5.10
2018-09-30T19:39:51.134Z,4.90
2018-09-30T19:42:19.588Z,4.27
2018-09-30T19:44:48.060Z,4.40
2018-09-30T19:47:16.505Z,3.90
2018-09-30T19:49:44.950Z,6.70
2018-09-30T19:52:13.480Z,5.70
2018-09-30T19:54:41.997Z,6.10
2018-09-30T19:57:10.462Z,6.27
2018-09-30T19:59:38.948Z,5.10
2018-09-30T20:02:08.069Z,5.10
2018-09-30T20:04:36.847Z,6.93
2018-09-30T20:07:05.326Z,7.73
2018-09-30T20:09:33.728Z,8.17
2018-09-30T20:12:02.288Z,8.80
2018-09-30T20:14:31.648Z,8.37
2018-09-30T20:17:00.061Z,7.60
2018-09-30T20:19:28.489Z,6.97
2018-09-30T20:21:56.985Z,6.90
2018-09-30T20:24:25.453Z,7.23
2018-09-30T20:26:53.845Z,8.30
2018-09-30T20:29:22.290Z,7.20
2018-09-30T20:31:50.832Z,7.43
2018-09-30T20:34:19.334Z,6.90
2018-09-30T20:36:47.848Z,7.67
2018-09-30T20:39:16.332Z,7.70
2018-09-30T20:41:45.483Z,6.80
2018-09-30T20:44:13.877Z,6.63
2018-09-30T20:46:42.384Z,6.87
2018-09-30T20:49:10.825Z,6.10
2018-09-30T20:51:39.252Z,6.37
2018-09-30T20:54:08.736Z,5.50
2018-09-30T20:56:37.755Z,4.87
2018-09-30T20:59:06.419Z,4.90
2018-09-30T21:01:34.827Z,4.43
2018-09-30T21:04:03.233Z,4.50
2018-09-30T21:06:34.773Z,4.13
2018-09-30T21:09:03.396Z,4.53
2018-09-30T21:11:31.769Z,3.83
2018-09-30T21:14:00.430Z,4.70
2018-09-30T21:16:30.424Z,4.50
2018-09-30T21:18:58.853Z,4.60
2018-09-30T21:21:27.252Z,4.00
2018-09-30T21:23:55.700Z,4.77
2018-09-30T21:26:24.173Z,3.90
2018-09-30T21:28:52.607Z,3.72
2018-09-30T21:31:21.147Z,3.73
2018-09-30T21:33:49.701Z,4.33
2018-09-30T21:36:18.106Z,4.07
2018-09-30T21:38:46.692Z,3.40
2018-09-30T21:41:15.074Z,3.90
2018-09-30T21:43:44.504Z,3.70
2018-09-30T21:46:13.225Z,3.77
2018-09-30T21:48:41.914Z,4.00
2018-09-30T21:51:11.616Z,3.30
2018-09-30T21:53:40.626Z,3.43
2018-09-30T21:56:12.978Z,3.17
2018-09-30T21:58:41.852Z,3.20
2018-09-30T22:01:10.531Z,4.07
2018-09-30T22:03:39.036Z,3.50
2018-09-30T22:06:07.590Z,3.40
2018-09-30T22:08:36.249Z,3.60
2018-09-30T22:11:04.764Z,3.57
2018-09-30T22:13:33.196Z,3.80
2018-09-30T22:16:08.881Z,3.33
2018-09-30T22:18:37.409Z,4.05
2018-09-30T22:26:05.562Z,4.92
2018-09-30T22:28:34.072Z,3.27
2018-09-30T22:31:03.381Z,3.10
2018-09-30T22:33:33.587Z,3.47
2018-09-30T22:36:03.015Z,3.33
2018-09-30T22:38:37.023Z,3.30
2018-09-30T22:41:05.545Z,3.30
2018-09-30T22:43:34.144Z,3.37
2018-09-30T22:46:03.007Z,3.58
2018-09-30T22:48:32.334Z,4.13
2018-09-30T22:51:00.740Z,3.87
2018-09-30T22:53:29.235Z,3.40
2018-09-30T22:55:57.800Z,3.27
2018-09-30T22:58:26.298Z,3.58
2018-09-30T23:00:54.788Z,3.23
2018-09-30T23:03:23.290Z,3.57
2018-09-30T23:05:51.657Z,3.47
2018-09-30T23:08:20.078Z,3.53
2018-09-30T23:10:48.427Z,3.00
2018-09-30T23:13:16.925Z,3.53
2018-09-30T23:15:45.583Z,2.97
2018-09-30T23:18:13.976Z,3.10
2018-09-30T23:20:42.413Z,3.33
2018-09-30T23:23:10.766Z,3.30
2018-09-30T23:25:39.542Z,3.37
2018-09-30T23:28:08.265Z,3.60
2018-09-30T23:30:36.728Z,3.87
2018-09-30T23:33:05.160Z,3.70
2018-09-30T23:35:33.523Z,3.58
2018-09-30T23:38:01.949Z,4.12
2018-09-30T23:40:30.387Z,3.80
2018-09-30T23:42:58.943Z,3.55
2018-09-30T23:45:27.385Z,3.50
2018-09-30T23:47:55.769Z,3.22
2018-09-30T23:50:24.380Z,3.70
2018-09-30T23:52:52.900Z,3.35
2018-09-30T23:55:21.362Z,5.20
2018-09-30T23:57:49.834Z,3.40
